Terminal Aerodrome Forecast
Issued by NWS

Home | Current Version | Previous Version | Text Only | Print | Product List | Glossary On
Versions: 1 2 3 4 5 6 7 8 9 10 11
212
FTUS45 KABQ 240530
TAFAEG
TAF
KAEG 240530Z 2406/2506 20010KT P6SM BKN250
     FM241500 24014G24KT P6SM FEW200
     FM241800 24020G32KT P6SM FEW150
     FM242100 25030G43KT P6SM SCT150=

USA.gov is the U.S. government's official web portal to all federal, state and local government web resources and services.